createdAt,value
2023-03-28T00:00:44.923Z,6.30
2023-03-28T00:01:47.166Z,6.32
2023-03-28T00:02:49.354Z,4.90
2023-03-28T00:03:52.551Z,6.13
2023-03-28T00:04:54.986Z,4.28
2023-03-28T00:06:00.955Z,7.05
2023-03-28T00:07:03.581Z,5.43
2023-03-28T00:08:06.573Z,7.90
2023-03-28T00:09:09.137Z,6.30
2023-03-28T00:10:11.485Z,6.20
2023-03-28T00:11:19.785Z,5.32
2023-03-28T00:12:22.701Z,7.75
2023-03-28T00:13:24.918Z,5.63
2023-03-28T00:14:27.171Z,7.18
2023-03-28T00:15:30.042Z,3.88
2023-03-28T00:16:35.612Z,4.05
2023-03-28T00:17:38.421Z,4.78
2023-03-28T00:18:42.463Z,5.15
2023-03-28T00:19:46.981Z,5.95
2023-03-28T00:20:49.533Z,7.95
2023-03-28T00:21:51.711Z,6.90
2023-03-28T00:22:54.796Z,6.82
2023-03-28T00:24:01.921Z,3.92
2023-03-28T00:25:07.008Z,5.55
2023-03-28T00:26:09.712Z,5.82
2023-03-28T00:27:11.970Z,5.30
2023-03-28T00:28:14.162Z,4.70
2023-03-28T00:29:21.116Z,5.68
2023-03-28T00:30:23.625Z,5.05
2023-03-28T00:31:26.391Z,5.45
2023-03-28T00:32:28.945Z,3.72
2023-03-28T00:33:31.378Z,6.88
2023-03-28T00:34:33.638Z,6.70
2023-03-28T00:35:36.061Z,5.38
2023-03-28T00:36:39.751Z,4.95
2023-03-28T00:37:42.556Z,5.45
2023-03-28T00:38:46.002Z,6.15
2023-03-28T00:39:51.804Z,6.13
2023-03-28T00:40:57.742Z,5.38
2023-03-28T00:42:01.683Z,4.93
2023-03-28T00:43:04.291Z,5.78
2023-03-28T00:44:44.014Z,6.80
2023-03-28T00:45:53.044Z,6.63
2023-03-28T00:47:01.532Z,7.03
2023-03-28T00:48:15.457Z,7.10
2023-03-28T00:49:26.100Z,4.78
2023-03-28T00:50:34.343Z,5.65
2023-03-28T00:51:44.638Z,4.95
2023-03-28T00:52:55.287Z,5.82
2023-03-28T00:54:00.639Z,7.45
2023-03-28T00:55:05.879Z,5.63
2023-03-28T00:56:11.514Z,7.50
2023-03-28T00:57:16.466Z,7.15
2023-03-28T00:58:26.672Z,5.55
2023-03-28T00:59:35.126Z,5.95
2023-03-28T01:00:41.319Z,6.13
2023-03-28T01:01:45.055Z,6.90
2023-03-28T01:02:53.325Z,7.25
2023-03-28T01:04:02.277Z,6.05
2023-03-28T01:05:06.129Z,5.25
2023-03-28T01:06:10.175Z,4.78
2023-03-28T01:07:16.269Z,5.57
2023-03-28T01:08:24.835Z,4.93
2023-03-28T01:09:28.193Z,5.13
2023-03-28T01:10:32.659Z,5.07
2023-03-28T01:11:38.235Z,7.45
2023-03-28T01:12:43.234Z,7.20
2023-03-28T01:13:49.851Z,6.20
2023-03-28T01:14:52.678Z,7.18
2023-03-28T01:15:55.739Z,8.25
2023-03-28T01:16:58.294Z,7.68
2023-03-28T01:18:03.378Z,5.60
2023-03-28T01:19:21.983Z,7.25
2023-03-28T01:20:55.063Z,5.50
2023-03-28T01:22:13.798Z,8.88
2023-03-28T01:23:33.745Z,6.38
2023-03-28T01:25:20.388Z,5.32
2023-03-28T01:26:52.946Z,7.55
2023-03-28T01:28:05.350Z,7.85
2023-03-28T01:29:21.148Z,8.68
2023-03-28T01:30:57.997Z,6.35
2023-03-28T01:34:38.611Z,8.50
2023-03-28T01:36:01.355Z,7.85
2023-03-28T01:38:54.107Z,7.75
2023-03-28T01:40:29.165Z,6.35
2023-03-28T01:41:53.807Z,12.18
2023-03-28T01:43:14.294Z,7.55
2023-03-28T01:44:26.910Z,11.68
2023-03-28T01:46:18.589Z,9.93
2023-03-28T01:47:42.258Z,7.13
2023-03-28T01:49:02.615Z,10.15
2023-03-28T01:50:10.752Z,9.85
2023-03-28T01:51:27.412Z,7.75
2023-03-28T01:52:36.151Z,8.48
2023-03-28T01:54:07.668Z,6.65
2023-03-28T01:55:24.806Z,6.95
2023-03-28T01:56:38.172Z,8.48
2023-03-28T01:57:56.229Z,9.52
2023-03-28T01:59:09.192Z,8.38
2023-03-28T02:02:19.340Z,6.03
2023-03-28T02:03:46.194Z,8.80
2023-03-28T02:05:15.822Z,7.45
2023-03-28T02:06:21.227Z,8.20
2023-03-28T02:07:25.497Z,9.30
2023-03-28T02:08:42.906Z,10.07
2023-03-28T02:10:15.323Z,7.82
2023-03-28T02:11:56.269Z,6.25
2023-03-28T02:13:12.307Z,7.03
2023-03-28T02:14:27.596Z,8.25
2023-03-28T02:15:57.726Z,11.00
2023-03-28T02:17:06.298Z,9.27
2023-03-28T02:18:45.339Z,7.22
2023-03-28T02:20:19.356Z,9.90
2023-03-28T02:21:56.454Z,8.07
2023-03-28T02:23:19.406Z,10.05
2023-03-28T02:24:42.078Z,9.77
2023-03-28T02:25:49.359Z,11.48
2023-03-28T02:27:12.100Z,14.77
2023-03-28T02:28:31.705Z,11.75
2023-03-28T02:30:03.567Z,9.48
2023-03-28T02:31:16.206Z,9.55
2023-03-28T02:32:21.744Z,9.00
2023-03-28T02:33:41.705Z,9.57
2023-03-28T02:34:48.773Z,11.10
2023-03-28T02:36:08.295Z,8.88
2023-03-28T02:37:29.164Z,9.20
2023-03-28T02:39:04.725Z,7.32
2023-03-28T02:40:35.850Z,8.07
2023-03-28T02:41:56.925Z,10.30
2023-03-28T02:43:32.289Z,8.50
2023-03-28T02:45:16.411Z,8.70
2023-03-28T02:46:27.586Z,7.68
2023-03-28T02:47:54.579Z,10.48
2023-03-28T02:49:23.131Z,6.75
2023-03-28T02:50:36.941Z,8.73
2023-03-28T02:51:48.803Z,10.63
2023-03-28T02:53:04.003Z,10.73
2023-03-28T02:54:22.937Z,9.98
2023-03-28T02:56:02.282Z,10.32
2023-03-28T02:57:45.577Z,9.50
2023-03-28T02:58:55.564Z,7.80
2023-03-28T03:00:05.424Z,11.48
2023-03-28T03:01:10.435Z,11.85
2023-03-28T03:02:18.985Z,9.75
2023-03-28T03:03:23.319Z,16.35
2023-03-28T03:04:25.654Z,11.88
2023-03-28T03:05:28.011Z,8.63
2023-03-28T03:06:30.222Z,8.68
2023-03-28T03:07:32.469Z,9.43
2023-03-28T03:08:35.143Z,8.02
2023-03-28T03:09:37.461Z,8.13
2023-03-28T03:10:39.789Z,9.60
2023-03-28T03:11:41.964Z,9.77
2023-03-28T03:12:44.559Z,10.63
2023-03-28T03:13:47.172Z,10.30
2023-03-28T03:14:50.819Z,12.77
2023-03-28T03:16:12.994Z,10.07
2023-03-28T03:17:15.410Z,8.15
2023-03-28T03:18:18.154Z,10.10
2023-03-28T03:19:20.781Z,8.55
2023-03-28T03:20:23.090Z,8.95
2023-03-28T03:21:26.499Z,10.07
2023-03-28T03:22:28.655Z,10.05
2023-03-28T03:23:30.939Z,7.93
2023-03-28T03:24:36.341Z,7.88
2023-03-28T03:25:39.294Z,10.55
2023-03-28T03:26:48.709Z,10.18
2023-03-28T03:27:51.988Z,10.13
2023-03-28T03:28:57.201Z,9.80
2023-03-28T03:30:04.124Z,9.07
2023-03-28T03:31:23.263Z,9.93
2023-03-28T03:32:45.347Z,10.18
2023-03-28T03:33:47.755Z,9.93
2023-03-28T03:34:53.167Z,9.88
2023-03-28T03:35:55.600Z,8.80
2023-03-28T03:36:57.797Z,10.75
2023-03-28T03:38:00.862Z,9.43
2023-03-28T03:39:03.685Z,11.52
2023-03-28T03:40:06.993Z,15.32
2023-03-28T03:41:11.239Z,11.05
2023-03-28T03:42:14.085Z,12.52
2023-03-28T03:43:16.741Z,15.43
2023-03-28T03:44:19.906Z,14.18
2023-03-28T03:45:22.635Z,14.10
2023-03-28T03:46:25.036Z,10.63
2023-03-28T03:47:28.456Z,14.57
2023-03-28T03:48:30.790Z,10.93
2023-03-28T03:49:34.861Z,14.18
2023-03-28T03:50:39.700Z,13.82
2023-03-28T03:51:48.644Z,13.85
2023-03-28T03:52:52.419Z,16.27
2023-03-28T03:54:00.443Z,14.07
2023-03-28T03:55:10.497Z,13.73
2023-03-28T03:56:15.255Z,14.50
2023-03-28T03:57:27.616Z,17.52
2023-03-28T03:58:34.623Z,17.85
2023-03-28T03:59:41.197Z,17.40
2023-03-28T04:00:48.819Z,15.70
2023-03-28T04:02:12.049Z,15.93
2023-03-28T04:03:26.473Z,20.80
2023-03-28T04:04:30.373Z,16.23
2023-03-28T04:05:48.925Z,14.02
2023-03-28T04:06:51.459Z,17.67
2023-03-28T04:07:53.839Z,15.18
2023-03-28T04:09:03.187Z,16.73
2023-03-28T04:10:31.304Z,16.17
2023-03-28T04:11:34.717Z,17.77
2023-03-28T04:12:37.059Z,19.48
2023-03-28T04:13:41.030Z,19.10
2023-03-28T04:14:43.425Z,14.27
2023-03-28T04:16:04.987Z,15.05
2023-03-28T04:17:16.135Z,13.82
2023-03-28T04:18:20.460Z,14.23
2023-03-28T04:19:24.361Z,12.90
2023-03-28T04:20:29.720Z,13.45
2023-03-28T04:21:42.865Z,11.50
2023-03-28T04:22:46.500Z,11.95
2023-03-28T04:23:52.175Z,14.25
2023-03-28T04:25:04.581Z,10.77
2023-03-28T04:26:15.325Z,11.25
2023-03-28T04:27:26.279Z,13.80
2023-03-28T04:28:29.285Z,15.23
2023-03-28T04:29:37.020Z,14.90
2023-03-28T04:30:58.171Z,14.27
2023-03-28T04:32:05.512Z,15.95
2023-03-28T04:33:33.697Z,11.50
2023-03-28T04:34:38.894Z,14.25
2023-03-28T04:35:51.735Z,14.73
2023-03-28T04:36:56.782Z,16.30
2023-03-28T04:37:59.882Z,13.07
2023-03-28T04:39:03.779Z,12.05
2023-03-28T04:40:21.655Z,14.40
2023-03-28T04:42:55.612Z,21.17
2023-03-28T04:44:07.849Z,18.23
2023-03-28T04:45:18.821Z,17.17
2023-03-28T04:46:22.841Z,14.90
2023-03-28T04:47:25.484Z,14.15
2023-03-28T04:48:28.040Z,15.85
2023-03-28T04:49:30.394Z,13.82
2023-03-28T04:50:35.139Z,12.65
2023-03-28T04:51:38.105Z,13.25
2023-03-28T04:52:40.476Z,14.50
2023-03-28T04:53:42.970Z,15.80
2023-03-28T04:55:10.186Z,13.50
2023-03-28T04:56:13.940Z,18.27
2023-03-28T04:57:16.473Z,19.98
2023-03-28T04:58:23.705Z,20.17
2023-03-28T04:59:26.288Z,23.48
2023-03-28T05:00:29.736Z,18.92
2023-03-28T05:01:33.019Z,16.50
2023-03-28T05:02:56.346Z,15.27
2023-03-28T05:04:01.178Z,17.88
2023-03-28T05:05:03.903Z,17.05
2023-03-28T05:06:07.119Z,22.60
2023-03-28T05:07:09.671Z,23.35
2023-03-28T05:08:13.225Z,30.40
2023-03-28T05:09:16.660Z,28.95
2023-03-28T05:10:18.920Z,26.33
2023-03-28T05:11:24.690Z,21.63
2023-03-28T05:12:26.893Z,21.65
2023-03-28T05:13:39.590Z,23.30
2023-03-28T05:14:50.808Z,16.10
2023-03-28T05:15:53.692Z,16.63
2023-03-28T05:17:18.593Z,14.75
2023-03-28T05:18:31.188Z,16.95
2023-03-28T05:19:33.614Z,22.50
2023-03-28T05:20:42.646Z,14.85
2023-03-28T05:21:44.897Z,18.50
2023-03-28T05:22:49.099Z,19.40
2023-03-28T05:23:51.968Z,15.90
2023-03-28T05:24:57.810Z,17.23
2023-03-28T05:26:01.064Z,12.48
2023-03-28T05:27:06.537Z,19.23
2023-03-28T05:28:09.124Z,20.48
2023-03-28T05:29:22.652Z,18.50
2023-03-28T05:30:26.088Z,16.08
2023-03-28T05:31:31.084Z,19.90
2023-03-28T05:32:49.993Z,25.27
2023-03-28T05:33:52.410Z,26.38
2023-03-28T05:35:13.402Z,29.45
2023-03-28T05:36:15.718Z,26.35
2023-03-28T05:37:18.118Z,22.45
2023-03-28T05:38:24.935Z,26.58
2023-03-28T05:39:31.658Z,28.77
2023-03-28T05:40:42.357Z,25.73
2023-03-28T05:41:44.668Z,31.40
2023-03-28T05:42:47.221Z,31.85
2023-03-28T05:43:51.501Z,36.75
2023-03-28T05:45:12.407Z,33.00
2023-03-28T05:46:26.363Z,31.00
2023-03-28T05:47:29.609Z,35.30
2023-03-28T05:48:33.284Z,27.20
2023-03-28T05:49:35.553Z,22.33
2023-03-28T05:50:38.350Z,19.60
2023-03-28T05:58:00.195Z,12.98
2023-03-28T05:59:11.662Z,15.43
2023-03-28T06:00:15.126Z,12.77
2023-03-28T06:01:29.167Z,12.45
2023-03-28T06:02:36.214Z,11.63
2023-03-28T06:03:40.142Z,12.32
2023-03-28T06:04:44.975Z,10.23
2023-03-28T06:05:49.375Z,12.57
2023-03-28T06:06:57.829Z,15.60
2023-03-28T06:08:02.628Z,11.50
2023-03-28T06:09:05.302Z,10.35
2023-03-28T06:10:20.985Z,11.50
2023-03-28T06:11:49.542Z,11.93
2023-03-28T06:12:51.819Z,15.25
2023-03-28T06:13:54.204Z,17.65
2023-03-28T06:14:57.088Z,26.38
2023-03-28T06:16:03.121Z,14.75
2023-03-28T06:17:08.557Z,15.65
2023-03-28T06:18:20.753Z,15.70
2023-03-28T06:19:25.962Z,16.95
2023-03-28T06:20:30.638Z,15.43
2023-03-28T06:21:33.853Z,15.38
2023-03-28T06:22:40.671Z,24.63
2023-03-28T06:23:45.780Z,27.88
2023-03-28T06:24:58.539Z,14.55
2023-03-28T06:26:03.428Z,16.67
2023-03-28T06:27:13.184Z,16.50
2023-03-28T06:28:15.723Z,17.67
2023-03-28T06:29:41.250Z,16.40
2023-03-28T06:30:47.982Z,14.18
2023-03-28T06:31:50.302Z,9.43
2023-03-28T06:32:54.122Z,12.07
2023-03-28T06:33:56.426Z,12.18
2023-03-28T06:34:59.189Z,12.65
2023-03-28T06:36:01.677Z,14.07
2023-03-28T06:37:07.739Z,13.52
2023-03-28T06:38:36.081Z,15.65
2023-03-28T06:39:39.492Z,11.75
2023-03-28T06:40:41.797Z,15.13
2023-03-28T06:41:44.588Z,17.13
2023-03-28T06:42:46.891Z,12.70
2023-03-28T06:43:59.001Z,14.60
2023-03-28T06:45:30.588Z,13.43
2023-03-28T06:46:37.784Z,13.75
2023-03-28T06:47:40.612Z,13.32
2023-03-28T06:48:43.184Z,10.63
2023-03-28T06:50:04.425Z,11.07
2023-03-28T06:51:19.374Z,11.93
2023-03-28T06:52:23.090Z,13.80
2023-03-28T06:53:27.368Z,10.75
2023-03-28T06:54:29.565Z,9.85
2023-03-28T06:55:35.405Z,10.70
2023-03-28T06:56:37.824Z,14.02
2023-03-28T06:57:40.319Z,15.98
2023-03-28T06:59:05.770Z,12.70
2023-03-28T07:00:09.464Z,11.15
2023-03-28T07:01:34.922Z,15.10
2023-03-28T07:02:59.936Z,19.02
2023-03-28T07:04:03.055Z,15.27
2023-03-28T07:05:06.074Z,14.65
2023-03-28T07:06:10.177Z,12.13
2023-03-28T07:07:12.462Z,11.73
2023-03-28T07:08:14.835Z,16.27
2023-03-28T07:09:17.189Z,15.35
2023-03-28T07:10:25.383Z,13.73
2023-03-28T07:11:28.103Z,12.70
2023-03-28T07:12:30.656Z,11.13
2023-03-28T07:13:32.955Z,9.77
2023-03-28T07:14:44.613Z,15.68
2023-03-28T07:15:46.899Z,9.90
2023-03-28T07:16:49.220Z,12.75
2023-03-28T07:17:53.132Z,11.93
2023-03-28T07:18:55.961Z,15.52
2023-03-28T07:20:06.721Z,11.05
2023-03-28T07:21:11.198Z,16.50
2023-03-28T07:22:13.448Z,12.77
2023-03-28T07:23:15.746Z,10.32
2023-03-28T07:24:17.963Z,8.13
2023-03-28T07:25:37.542Z,11.63
2023-03-28T07:26:39.971Z,8.77
2023-03-28T07:27:44.292Z,13.63
2023-03-28T07:28:49.783Z,11.13
2023-03-28T07:29:52.213Z,13.48
2023-03-28T07:30:54.756Z,10.00
2023-03-28T07:31:57.438Z,9.70
2023-03-28T07:33:13.818Z,9.40
2023-03-28T07:34:20.543Z,9.88
2023-03-28T07:35:23.489Z,8.85
2023-03-28T07:36:28.890Z,11.10
2023-03-28T07:37:37.380Z,11.75
2023-03-28T07:38:47.268Z,8.52
2023-03-28T07:39:51.215Z,10.50
2023-03-28T07:41:00.636Z,15.13
2023-03-28T07:42:03.461Z,12.00
2023-03-28T07:43:06.013Z,9.00
2023-03-28T07:44:08.512Z,8.95
2023-03-28T07:45:11.457Z,13.23
2023-03-28T07:46:15.529Z,10.95
2023-03-28T07:47:18.269Z,17.10
2023-03-28T07:48:21.265Z,13.40
2023-03-28T07:49:23.726Z,15.15
2023-03-28T07:50:26.179Z,11.52
2023-03-28T07:51:28.993Z,12.75
2023-03-28T07:52:31.269Z,18.38
2023-03-28T07:53:34.779Z,15.82
2023-03-28T07:54:37.789Z,16.40
2023-03-28T07:55:54.266Z,13.35
2023-03-28T07:57:04.035Z,9.57
2023-03-28T07:58:24.896Z,10.05
2023-03-28T07:59:30.313Z,14.25
2023-03-28T08:00:33.089Z,10.50
2023-03-28T08:02:04.358Z,7.35
2023-03-28T08:03:07.975Z,9.02
2023-03-28T08:04:11.847Z,12.38
2023-03-28T08:05:34.098Z,11.30
2023-03-28T08:06:40.231Z,9.90
2023-03-28T08:07:45.951Z,9.55
2023-03-28T08:08:48.571Z,10.90
2023-03-28T08:10:14.011Z,8.27
2023-03-28T08:11:16.438Z,11.40
2023-03-28T08:12:19.594Z,14.70
2023-03-28T08:13:24.333Z,9.15
2023-03-28T08:14:30.561Z,13.02
2023-03-28T08:15:33.281Z,10.27
2023-03-28T08:16:35.853Z,12.10
2023-03-28T08:17:38.273Z,11.52
2023-03-28T08:18:41.578Z,10.25
2023-03-28T08:19:44.299Z,10.85
2023-03-28T08:20:48.095Z,6.70
2023-03-28T08:21:51.593Z,7.93
2023-03-28T08:22:54.218Z,10.13
2023-03-28T08:24:35.180Z,8.30
2023-03-28T08:25:45.279Z,8.63
2023-03-28T08:26:50.647Z,11.48
2023-03-28T08:27:53.617Z,10.38
2023-03-28T08:28:58.642Z,9.73
2023-03-28T08:30:02.419Z,11.63
2023-03-28T08:31:14.339Z,12.70
2023-03-28T08:32:18.713Z,8.70
2023-03-28T08:33:21.999Z,10.15
2023-03-28T08:34:24.670Z,9.38
2023-03-28T08:35:27.528Z,6.90
2023-03-28T08:36:33.475Z,9.77
2023-03-28T08:37:36.035Z,10.95
2023-03-28T08:38:38.609Z,10.65
2023-03-28T08:39:42.632Z,9.18
2023-03-28T08:40:58.721Z,10.88
2023-03-28T08:42:19.907Z,12.40
2023-03-28T08:43:36.943Z,7.40
2023-03-28T08:44:52.144Z,9.95
2023-03-28T08:45:59.822Z,9.82
2023-03-28T08:47:22.549Z,6.30
2023-03-28T08:48:30.900Z,10.18
2023-03-28T08:49:42.929Z,10.27
2023-03-28T08:51:08.422Z,8.30
2023-03-28T08:52:15.998Z,11.38
2023-03-28T08:53:30.266Z,10.05
2023-03-28T08:54:40.458Z,10.82
2023-03-28T08:55:45.694Z,6.97
2023-03-28T08:56:53.758Z,6.70
2023-03-28T08:57:57.307Z,7.65
2023-03-28T08:59:15.986Z,9.82
2023-03-28T09:00:24.461Z,11.25
2023-03-28T09:01:29.439Z,5.85
2023-03-28T09:02:32.093Z,9.00
2023-03-28T09:03:36.271Z,6.78
2023-03-28T09:04:44.974Z,8.25
2023-03-28T09:06:04.797Z,8.65
2023-03-28T09:07:22.370Z,5.93
2023-03-28T09:08:38.116Z,7.70
2023-03-28T09:09:55.256Z,7.53
2023-03-28T09:11:23.480Z,8.70
2023-03-28T09:12:35.352Z,11.55
2023-03-28T09:13:49.414Z,8.60
2023-03-28T09:15:17.596Z,9.70
2023-03-28T09:16:37.764Z,13.63
2023-03-28T09:18:28.764Z,14.15
2023-03-28T09:19:48.428Z,7.47
2023-03-28T09:21:47.189Z,9.80
2023-03-28T09:23:09.770Z,6.75
2023-03-28T09:25:19.383Z,7.72
2023-03-28T09:26:32.812Z,8.63
2023-03-28T09:27:56.109Z,10.77
2023-03-28T09:29:10.896Z,6.22
2023-03-28T09:30:18.987Z,5.72
2023-03-28T09:31:27.793Z,7.72
2023-03-28T09:32:38.405Z,9.10
2023-03-28T09:33:45.774Z,4.75
2023-03-28T09:35:57.541Z,5.22
2023-03-28T09:37:13.502Z,5.90
2023-03-28T09:38:36.103Z,5.80
2023-03-28T09:39:49.384Z,8.05
2023-03-28T09:40:56.095Z,5.85
2023-03-28T09:42:14.765Z,6.72
2023-03-28T09:43:28.750Z,5.32
2023-03-28T09:45:22.748Z,8.15
2023-03-28T09:46:46.940Z,4.95
2023-03-28T09:48:07.304Z,3.63
2023-03-28T09:49:25.586Z,6.50
2023-03-28T09:50:34.554Z,8.32
2023-03-28T09:51:37.918Z,4.70
2023-03-28T09:52:40.345Z,8.23
2023-03-28T09:53:43.330Z,5.50
2023-03-28T09:54:46.963Z,6.00
2023-03-28T09:56:03.376Z,8.70
2023-03-28T09:57:08.514Z,5.97
2023-03-28T09:58:18.234Z,7.05
2023-03-28T09:59:43.314Z,6.10
2023-03-28T10:00:51.906Z,9.35
2023-03-28T10:02:29.284Z,5.57
2023-03-28T10:03:35.742Z,6.47
2023-03-28T10:04:41.743Z,5.72
2023-03-28T10:06:23.695Z,7.28
2023-03-28T10:07:32.679Z,4.07
2023-03-28T10:08:50.811Z,5.80
2023-03-28T10:10:25.341Z,7.22
2023-03-28T10:11:54.162Z,7.80
2023-03-28T10:13:02.190Z,4.32
2023-03-28T10:14:06.078Z,3.35
2023-03-28T10:15:39.056Z,5.22
2023-03-28T10:17:23.309Z,8.65
2023-03-28T10:18:28.340Z,7.93
2023-03-28T10:19:52.257Z,5.45
2023-03-28T10:21:09.044Z,6.32
2023-03-28T10:22:21.335Z,6.75
2023-03-28T10:23:26.711Z,6.53
2023-03-28T10:24:32.806Z,8.27
2023-03-28T10:25:46.015Z,5.78
2023-03-28T10:26:49.341Z,7.25
2023-03-28T10:27:52.582Z,8.10
2023-03-28T10:29:02.249Z,7.18
2023-03-28T10:30:25.278Z,4.78
2023-03-28T10:31:31.775Z,6.03
2023-03-28T10:33:21.214Z,4.25
2023-03-28T10:35:07.748Z,6.15
2023-03-28T10:36:48.025Z,6.75
2023-03-28T10:37:56.808Z,7.05
2023-03-28T10:39:23.171Z,5.00
2023-03-28T10:41:01.376Z,8.60
2023-03-28T10:42:18.451Z,7.53
2023-03-28T10:43:49.720Z,6.30
2023-03-28T10:45:07.190Z,5.28
2023-03-28T10:46:27.786Z,5.85
2023-03-28T10:47:55.823Z,4.75
2023-03-28T10:49:03.916Z,6.38
2023-03-28T10:50:21.154Z,6.70
2023-03-28T10:51:25.963Z,6.38
2023-03-28T10:52:43.192Z,6.13
2023-03-28T10:54:06.478Z,6.05
2023-03-28T10:55:18.332Z,4.45
2023-03-28T10:57:12.682Z,4.97
2023-03-28T10:58:32.590Z,8.45
2023-03-28T10:59:51.308Z,5.53
2023-03-28T11:01:18.267Z,4.90
2023-03-28T11:03:00.170Z,4.68
2023-03-28T11:04:24.179Z,5.32
2023-03-28T11:05:42.408Z,8.55
2023-03-28T11:06:54.932Z,5.18
2023-03-28T11:08:30.798Z,4.68
2023-03-28T11:09:46.635Z,7.60
2023-03-28T11:11:47.217Z,6.70
2023-03-28T11:13:04.300Z,5.53
2023-03-28T11:14:22.129Z,4.70
2023-03-28T11:16:57.526Z,4.05
2023-03-28T11:18:31.115Z,6.63
2023-03-28T11:20:17.325Z,7.07
2023-03-28T11:21:36.859Z,6.88
2023-03-28T11:23:05.627Z,7.22
2023-03-28T11:24:36.213Z,6.05
2023-03-28T11:26:13.233Z,7.10
2023-03-28T11:27:53.890Z,4.80
2023-03-28T11:29:19.648Z,5.95
2023-03-28T11:30:28.238Z,8.07
2023-03-28T11:32:19.750Z,5.88
2023-03-28T11:33:40.628Z,7.20
2023-03-28T11:35:17.914Z,6.78
2023-03-28T11:36:29.390Z,4.90
2023-03-28T11:37:46.327Z,5.57
2023-03-28T11:39:01.159Z,5.28
2023-03-28T11:40:40.584Z,5.75
2023-03-28T11:41:50.067Z,5.93
2023-03-28T11:43:13.601Z,4.75
2023-03-28T11:44:28.757Z,4.93
2023-03-28T11:45:52.043Z,6.80
2023-03-28T11:47:04.737Z,5.80
2023-03-28T11:48:12.474Z,6.10
2023-03-28T11:49:34.825Z,5.57
2023-03-28T11:51:01.392Z,6.00
2023-03-28T11:52:40.322Z,4.32
2023-03-28T11:54:00.736Z,8.57
2023-03-28T11:55:27.559Z,7.50
2023-03-28T11:56:56.693Z,4.18
2023-03-28T11:58:22.487Z,6.85
2023-03-28T11:59:46.423Z,5.15
2023-03-28T12:01:06.690Z,4.72
2023-03-28T12:02:25.879Z,6.45
2023-03-28T12:03:46.536Z,4.55
2023-03-28T12:04:57.102Z,9.98
2023-03-28T12:06:12.985Z,6.80
2023-03-28T12:07:30.288Z,8.32
2023-03-28T12:08:43.853Z,4.65
2023-03-28T12:09:49.356Z,5.05
2023-03-28T12:10:57.994Z,7.00
2023-03-28T12:12:51.244Z,8.38
2023-03-28T12:14:41.618Z,6.50
2023-03-28T12:16:07.084Z,7.18
2023-03-28T12:17:23.059Z,7.78
2023-03-28T12:19:06.082Z,5.10
2023-03-28T12:20:59.832Z,7.22
2023-03-28T12:22:22.661Z,3.92
2023-03-28T12:23:41.924Z,5.57
2023-03-28T12:25:13.737Z,5.00
2023-03-28T12:26:28.848Z,5.63
2023-03-28T12:27:42.820Z,6.18
2023-03-28T12:28:58.451Z,7.63
2023-03-28T12:30:23.705Z,6.53
2023-03-28T12:31:44.811Z,4.38
2023-03-28T12:33:09.418Z,4.05
2023-03-28T12:34:38.179Z,4.95
2023-03-28T12:35:52.366Z,8.15
2023-03-28T12:37:11.899Z,4.60
2023-03-28T12:38:29.161Z,3.85
2023-03-28T12:39:54.957Z,7.65
2023-03-28T12:41:06.185Z,6.28
2023-03-28T12:42:12.882Z,6.05
2023-03-28T12:43:18.695Z,4.57
2023-03-28T12:44:28.071Z,7.72
2023-03-28T12:45:36.910Z,4.00
2023-03-28T12:46:47.336Z,9.15
2023-03-28T12:47:54.368Z,5.00
2023-03-28T12:49:00.774Z,6.65
2023-03-28T12:50:12.146Z,6.15
2023-03-28T12:51:30.080Z,3.90
2023-03-28T12:52:34.946Z,6.20
2023-03-28T12:54:07.466Z,4.95
2023-03-28T12:55:24.693Z,7.88
2023-03-28T12:56:27.866Z,7.13
2023-03-28T12:57:44.908Z,5.93
2023-03-28T12:59:00.881Z,5.28
2023-03-28T13:00:13.450Z,5.50
2023-03-28T13:01:40.921Z,7.18
2023-03-28T13:03:27.988Z,6.15
2023-03-28T13:04:52.330Z,5.28
2023-03-28T13:06:24.973Z,5.97
2023-03-28T13:07:46.939Z,5.22
2023-03-28T13:09:16.083Z,5.38
2023-03-28T13:10:30.512Z,5.32
2023-03-28T13:11:56.976Z,5.20
2023-03-28T13:13:44.041Z,6.97
2023-03-28T13:15:02.322Z,6.07
2023-03-28T13:16:15.328Z,9.25
2023-03-28T13:17:26.328Z,6.57
2023-03-28T13:18:34.128Z,6.88
2023-03-28T13:19:42.672Z,7.05
2023-03-28T13:20:48.004Z,10.52
2023-03-28T13:21:57.507Z,6.18
2023-03-28T13:23:07.460Z,9.13
2023-03-28T13:24:29.941Z,5.90
2023-03-28T13:25:32.965Z,7.47
2023-03-28T13:26:53.990Z,5.43
2023-03-28T13:28:11.365Z,5.60
2023-03-28T13:29:13.611Z,5.45
2023-03-28T13:30:21.155Z,5.53
2023-03-28T13:31:26.052Z,6.82
2023-03-28T13:32:35.234Z,7.82
2023-03-28T13:33:44.967Z,7.55
2023-03-28T13:34:56.654Z,4.97
2023-03-28T13:35:58.990Z,6.15
2023-03-28T13:37:22.579Z,7.78
2023-03-28T13:38:28.177Z,10.07
2023-03-28T13:39:30.486Z,3.92
2023-03-28T13:41:09.170Z,8.20
2023-03-28T13:42:56.993Z,5.30
2023-03-28T13:44:01.864Z,5.75
2023-03-28T13:45:23.180Z,7.38
2023-03-28T13:46:43.101Z,6.35
2023-03-28T13:47:46.046Z,3.42
2023-03-28T13:49:02.833Z,5.30
2023-03-28T13:50:26.518Z,9.05
2023-03-28T13:51:39.106Z,6.03
2023-03-28T13:52:41.367Z,5.85
2023-03-28T13:53:48.073Z,5.28
2023-03-28T13:54:54.357Z,6.93
2023-03-28T13:56:18.678Z,5.85
2023-03-28T13:57:25.687Z,7.25
2023-03-28T13:58:29.030Z,9.20
2023-03-28T13:59:39.235Z,4.90
2023-03-28T14:00:41.598Z,7.32
2023-03-28T14:01:54.154Z,5.85
2023-03-28T14:03:13.159Z,5.30
2023-03-28T14:04:21.573Z,5.10
2023-03-28T14:05:27.241Z,4.65
2023-03-28T14:06:30.602Z,5.68
2023-03-28T14:07:32.910Z,6.05
2023-03-28T14:08:35.326Z,8.75
2023-03-28T14:09:37.561Z,7.45
2023-03-28T14:10:42.842Z,6.28
2023-03-28T14:11:45.996Z,6.38
2023-03-28T14:12:52.577Z,7.13
2023-03-28T14:14:14.201Z,4.75
2023-03-28T14:15:25.702Z,5.82
2023-03-28T14:16:27.969Z,4.22
2023-03-28T14:17:33.588Z,6.50
2023-03-28T14:18:41.334Z,8.07
2023-03-28T14:19:47.863Z,7.68
2023-03-28T14:20:50.237Z,12.20
2023-03-28T14:21:53.540Z,12.75
2023-03-28T14:23:00.298Z,6.07
2023-03-28T14:24:07.024Z,6.07
2023-03-28T14:25:14.887Z,4.57
2023-03-28T14:26:20.109Z,7.47
2023-03-28T14:27:38.491Z,5.68
2023-03-28T14:28:41.694Z,4.97
2023-03-28T14:29:54.594Z,5.30
2023-03-28T14:30:57.541Z,7.80
2023-03-28T14:32:00.719Z,6.25
2023-03-28T14:33:14.343Z,5.68
2023-03-28T14:34:38.637Z,5.32
2023-03-28T14:35:42.284Z,5.75
2023-03-28T14:36:58.582Z,3.88
2023-03-28T14:38:13.958Z,6.28
2023-03-28T14:39:18.312Z,5.07
2023-03-28T14:40:30.432Z,7.70
2023-03-28T14:41:36.085Z,4.53
2023-03-28T14:42:38.321Z,6.43
2023-03-28T14:43:40.628Z,4.47
2023-03-28T14:44:46.451Z,5.85
2023-03-28T14:45:52.758Z,6.43
2023-03-28T14:46:59.848Z,10.20
2023-03-28T14:48:05.953Z,5.40
2023-03-28T14:49:13.617Z,5.43
2023-03-28T14:50:20.167Z,3.35
2023-03-28T14:51:22.795Z,5.50
2023-03-28T14:52:36.613Z,5.25
2023-03-28T14:53:42.177Z,8.63
2023-03-28T14:54:47.091Z,4.55
2023-03-28T14:55:50.888Z,5.78
2023-03-28T14:56:55.599Z,4.30
2023-03-28T14:57:59.713Z,10.68
2023-03-28T14:59:02.761Z,6.30
2023-03-28T15:00:12.539Z,7.90
2023-03-28T15:01:22.652Z,7.03
2023-03-28T15:02:40.805Z,3.53
2023-03-28T15:03:47.163Z,7.72
2023-03-28T15:04:50.408Z,7.18
2023-03-28T15:05:54.778Z,6.78
2023-03-28T15:06:58.369Z,7.10
2023-03-28T15:08:02.638Z,6.70
2023-03-28T15:09:28.369Z,4.03
2023-03-28T15:10:31.383Z,5.25
2023-03-28T15:11:36.353Z,6.43
2023-03-28T15:12:49.711Z,6.53
2023-03-28T15:14:15.996Z,6.53
2023-03-28T15:15:27.079Z,7.22
2023-03-28T15:16:32.226Z,3.83
2023-03-28T15:17:37.286Z,5.95
2023-03-28T15:18:44.626Z,8.18
2023-03-28T15:19:52.634Z,4.93
2023-03-28T15:21:00.216Z,5.80
2023-03-28T15:22:08.360Z,6.25
2023-03-28T15:23:32.232Z,3.38
2023-03-28T15:24:36.684Z,5.45
2023-03-28T15:25:39.116Z,5.80
2023-03-28T15:26:44.133Z,6.43
2023-03-28T15:27:51.368Z,4.95
2023-03-28T15:28:56.410Z,4.15
2023-03-28T15:30:05.858Z,5.65
2023-03-28T15:31:10.038Z,6.53
2023-03-28T15:32:16.981Z,5.78
2023-03-28T15:33:22.127Z,6.82
2023-03-28T15:34:29.440Z,4.47
2023-03-28T15:35:39.976Z,7.85
2023-03-28T15:36:57.708Z,3.35
2023-03-28T15:38:21.678Z,5.45
2023-03-28T15:39:27.124Z,5.43
2023-03-28T15:40:36.697Z,5.65
2023-03-28T15:41:49.318Z,9.15
2023-03-28T15:42:52.314Z,9.35
2023-03-28T15:43:54.558Z,9.00
2023-03-28T15:44:56.807Z,7.60
2023-03-28T15:46:01.578Z,5.15
2023-03-28T15:47:13.091Z,3.67
2023-03-28T15:48:19.886Z,10.55
2023-03-28T15:49:22.214Z,10.93
2023-03-28T15:50:30.583Z,6.07
2023-03-28T15:51:47.510Z,6.15
2023-03-28T15:52:55.359Z,10.27
2023-03-28T15:54:01.054Z,9.27
2023-03-28T15:55:05.743Z,9.10
2023-03-28T15:56:21.292Z,4.72
2023-03-28T15:57:27.457Z,13.48
2023-03-28T15:58:31.229Z,7.57
2023-03-28T15:59:42.330Z,21.13
2023-03-28T16:00:53.199Z,9.93
2023-03-28T16:02:23.076Z,5.18